createdAt,value
2017-09-27T00:00:12.228Z,68.70
2017-09-27T00:01:16.942Z,68.70
2017-09-27T00:02:21.537Z,68.60
2017-09-27T00:03:26.336Z,68.70
2017-09-27T00:04:31.096Z,68.70
2017-09-27T00:05:35.631Z,68.70
2017-09-27T00:06:40.400Z,68.70
2017-09-27T00:07:45.095Z,68.60
2017-09-27T00:08:49.788Z,68.60
2017-09-27T00:09:54.432Z,68.60
2017-09-27T00:10:59.094Z,68.60
2017-09-27T00:12:03.674Z,68.60
2017-09-27T00:13:08.299Z,68.60
2017-09-27T00:14:13.074Z,68.60
2017-09-27T00:15:17.756Z,68.70
2017-09-27T00:16:22.310Z,68.60
2017-09-27T00:17:27.141Z,68.60
2017-09-27T00:18:31.717Z,68.60
2017-09-27T00:19:36.449Z,68.60
2017-09-27T00:20:41.038Z,68.70
2017-09-27T00:21:45.868Z,68.60
2017-09-27T00:22:50.614Z,68.60
2017-09-27T00:23:55.425Z,68.60
2017-09-27T00:25:00.183Z,68.60
2017-09-27T00:26:04.843Z,68.60
2017-09-27T00:27:09.724Z,68.60
2017-09-27T00:28:14.466Z,68.60
2017-09-27T00:29:19.118Z,68.60
2017-09-27T00:30:23.958Z,68.70
2017-09-27T00:31:28.825Z,68.70
2017-09-27T00:32:33.369Z,68.70
2017-09-27T00:33:37.993Z,68.70
2017-09-27T00:34:42.634Z,68.70
2017-09-27T00:35:47.202Z,68.70
2017-09-27T00:36:51.816Z,68.60
2017-09-27T00:37:56.549Z,68.60
2017-09-27T00:39:01.296Z,68.70
2017-09-27T00:40:05.916Z,68.70
2017-09-27T00:41:10.454Z,68.60
2017-09-27T00:42:15.157Z,68.60
2017-09-27T00:43:19.872Z,68.60
2017-09-27T00:44:24.668Z,68.60
2017-09-27T00:45:29.232Z,68.70
2017-09-27T00:46:33.964Z,68.70
2017-09-27T00:47:38.805Z,68.70
2017-09-27T00:48:43.501Z,68.70
2017-09-27T00:49:48.448Z,68.70
2017-09-27T00:50:53.095Z,68.70
2017-09-27T00:51:57.908Z,68.70
2017-09-27T00:53:02.516Z,68.70
2017-09-27T00:54:07.291Z,68.70
2017-09-27T00:55:12.073Z,68.70
2017-09-27T00:56:16.811Z,68.80
2017-09-27T00:57:21.578Z,68.80
2017-09-27T00:58:26.141Z,68.80
2017-09-27T00:59:31.026Z,68.80
2017-09-27T01:00:35.727Z,68.80
2017-09-27T01:01:40.469Z,68.80
2017-09-27T01:02:45.188Z,68.80
2017-09-27T01:03:49.726Z,68.80
2017-09-27T01:04:54.406Z,68.80
2017-09-27T01:05:59.149Z,68.80
2017-09-27T01:07:03.847Z,68.90
2017-09-27T01:08:08.715Z,68.80
2017-09-27T01:09:13.336Z,68.70
2017-09-27T01:10:18.046Z,68.70
2017-09-27T01:11:22.768Z,68.80
2017-09-27T01:12:27.611Z,68.70
2017-09-27T01:13:32.356Z,68.70
2017-09-27T01:14:37.075Z,68.70
2017-09-27T01:15:41.644Z,68.60
2017-09-27T01:16:46.411Z,68.60
2017-09-27T01:17:50.933Z,68.60
2017-09-27T01:18:55.564Z,68.70
2017-09-27T01:20:00.132Z,68.80
2017-09-27T01:21:04.853Z,68.80
2017-09-27T01:22:09.539Z,68.80
2017-09-27T01:23:14.316Z,68.80
2017-09-27T01:24:19.109Z,68.80
2017-09-27T01:25:23.747Z,68.80
2017-09-27T01:26:28.498Z,68.80
2017-09-27T01:27:33.141Z,68.80
2017-09-27T01:28:37.802Z,68.90
2017-09-27T01:29:42.651Z,68.80
2017-09-27T01:30:47.294Z,68.80
2017-09-27T01:31:52.131Z,68.80
2017-09-27T01:32:56.974Z,68.80
2017-09-27T01:34:01.556Z,68.90
2017-09-27T01:35:06.348Z,68.80
2017-09-27T01:36:10.979Z,68.90
2017-09-27T01:37:15.722Z,68.80
2017-09-27T01:38:20.400Z,68.90
2017-09-27T01:39:25.199Z,68.80
2017-09-27T01:40:29.908Z,68.80
2017-09-27T01:41:34.666Z,68.80
2017-09-27T01:42:39.231Z,68.80
2017-09-27T01:43:43.915Z,68.80
2017-09-27T01:44:48.616Z,68.80
2017-09-27T01:45:53.243Z,68.80
2017-09-27T01:46:57.887Z,68.80
2017-09-27T01:48:02.500Z,68.80
2017-09-27T01:49:07.100Z,68.80
2017-09-27T01:50:11.895Z,68.80
2017-09-27T01:51:16.517Z,68.80
2017-09-27T01:52:21.296Z,68.80
2017-09-27T01:53:26.105Z,68.80
2017-09-27T01:54:30.712Z,68.80
2017-09-27T01:55:35.559Z,68.80
2017-09-27T01:56:40.218Z,68.80
2017-09-27T01:57:44.692Z,68.80
2017-09-27T01:58:49.313Z,68.80
2017-09-27T01:59:53.795Z,68.80
2017-09-27T02:00:58.542Z,68.80
2017-09-27T02:02:03.234Z,68.80
2017-09-27T02:03:08.026Z,69.00
2017-09-27T02:04:12.667Z,68.80
2017-09-27T02:05:17.370Z,68.70
2017-09-27T02:06:21.966Z,68.80
2017-09-27T02:07:26.633Z,68.80
2017-09-27T02:08:31.231Z,68.70
2017-09-27T02:09:35.919Z,68.80
2017-09-27T02:10:40.622Z,68.70
2017-09-27T02:11:45.157Z,68.70
2017-09-27T02:12:49.847Z,68.70
2017-09-27T02:13:54.519Z,68.80
2017-09-27T02:14:59.314Z,68.90
2017-09-27T02:16:03.910Z,69.90
2017-09-27T02:17:08.569Z,70.10
2017-09-27T02:18:13.141Z,70.10
2017-09-27T02:19:17.875Z,69.90
2017-09-27T02:20:22.578Z,69.80
2017-09-27T02:21:27.457Z,69.80
2017-09-27T02:22:32.143Z,69.70
2017-09-27T02:23:36.919Z,69.70
2017-09-27T02:24:41.653Z,69.60
2017-09-27T02:25:46.364Z,69.70
2017-09-27T02:26:51.002Z,69.70
2017-09-27T02:27:55.916Z,69.70
2017-09-27T02:29:00.698Z,69.60
2017-09-27T02:30:05.394Z,69.70
2017-09-27T02:31:10.259Z,69.70
2017-09-27T02:32:14.914Z,69.80
2017-09-27T02:33:19.663Z,69.80
2017-09-27T02:34:24.464Z,70.00
2017-09-27T02:35:29.063Z,70.00
2017-09-27T02:36:33.663Z,70.10
2017-09-27T02:37:38.314Z,70.10
2017-09-27T02:38:42.990Z,70.40
2017-09-27T02:39:47.550Z,70.30
2017-09-27T02:40:52.271Z,70.40
2017-09-27T02:41:57.068Z,70.60
2017-09-27T02:43:01.689Z,70.70
2017-09-27T02:44:06.453Z,70.60
2017-09-27T02:45:11.208Z,70.60
2017-09-27T02:46:15.921Z,70.60
2017-09-27T02:47:20.513Z,70.90
2017-09-27T02:48:25.195Z,71.00
2017-09-27T02:49:29.808Z,71.70
2017-09-27T02:50:34.553Z,71.10
2017-09-27T02:51:39.390Z,71.00
2017-09-27T02:52:44.317Z,71.00
2017-09-27T02:53:49.172Z,70.80
2017-09-27T02:54:53.952Z,70.80
2017-09-27T02:55:58.738Z,70.70
2017-09-27T02:57:03.612Z,70.90
2017-09-27T02:58:08.415Z,71.10
2017-09-27T02:59:13.310Z,71.20
2017-09-27T03:00:18.010Z,71.30
2017-09-27T03:01:22.802Z,71.30
2017-09-27T03:02:27.680Z,71.30
2017-09-27T03:03:32.470Z,71.30
2017-09-27T03:04:37.055Z,71.50
2017-09-27T03:05:41.784Z,71.30
2017-09-27T03:06:46.649Z,71.30
2017-09-27T03:07:51.344Z,71.20
2017-09-27T03:08:55.862Z,71.10
2017-09-27T03:10:00.418Z,71.20
2017-09-27T03:11:05.118Z,71.20
2017-09-27T03:12:09.664Z,71.30
2017-09-27T03:13:14.407Z,71.30
2017-09-27T03:14:19.183Z,71.60
2017-09-27T03:15:23.853Z,71.70
2017-09-27T03:16:28.603Z,71.70
2017-09-27T03:17:33.411Z,71.60
2017-09-27T03:18:38.139Z,71.60
2017-09-27T03:19:42.977Z,71.60
2017-09-27T03:20:47.887Z,71.60
2017-09-27T03:21:52.465Z,71.60
2017-09-27T03:22:57.131Z,71.60
2017-09-27T03:24:01.899Z,71.60
2017-09-27T03:25:06.838Z,71.80
2017-09-27T03:26:11.591Z,71.70
2017-09-27T03:27:16.777Z,71.60
2017-09-27T03:28:21.949Z,71.60
2017-09-27T03:29:27.717Z,71.50
2017-09-27T03:30:33.050Z,71.60
2017-09-27T03:31:38.382Z,71.50
2017-09-27T03:32:43.500Z,71.50
2017-09-27T03:33:48.638Z,71.50
2017-09-27T03:34:53.677Z,71.50
2017-09-27T03:35:58.895Z,71.30
2017-09-27T03:37:04.198Z,71.40
2017-09-27T03:38:09.628Z,71.30
2017-09-27T03:39:14.795Z,71.40
2017-09-27T03:40:19.849Z,71.20
2017-09-27T03:41:26.461Z,71.20
2017-09-27T03:42:31.557Z,71.20
2017-09-27T03:43:36.694Z,71.10
2017-09-27T03:44:41.900Z,71.10
2017-09-27T03:45:48.044Z,71.10
2017-09-27T03:46:52.943Z,71.20
2017-09-27T03:47:58.222Z,71.30
2017-09-27T03:49:03.409Z,72.00
2017-09-27T03:50:08.444Z,71.30
2017-09-27T03:51:13.628Z,71.30
2017-09-27T03:52:18.807Z,71.30
2017-09-27T03:53:24.060Z,71.20
2017-09-27T03:54:29.268Z,71.00
2017-09-27T03:55:34.264Z,71.70
2017-09-27T03:56:39.540Z,71.10
2017-09-27T03:57:44.952Z,71.10
2017-09-27T03:58:50.090Z,71.20
2017-09-27T03:59:55.415Z,71.30
2017-09-27T04:01:00.846Z,71.30
2017-09-27T04:02:06.075Z,71.40
2017-09-27T04:03:12.031Z,71.50
2017-09-27T04:04:17.117Z,71.50
2017-09-27T04:05:22.227Z,71.50
2017-09-27T04:06:27.342Z,71.50
2017-09-27T04:07:32.618Z,71.60
2017-09-27T04:08:37.856Z,71.70
2017-09-27T04:09:43.201Z,71.80
2017-09-27T04:10:48.485Z,71.80
2017-09-27T04:11:53.909Z,71.80
2017-09-27T04:12:59.001Z,71.70
2017-09-27T04:14:04.136Z,71.70
2017-09-27T04:15:10.374Z,71.60
2017-09-27T04:16:15.496Z,71.60
2017-09-27T04:17:20.741Z,71.50
2017-09-27T04:18:26.014Z,71.50
2017-09-27T04:19:31.155Z,71.50
2017-09-27T04:20:36.174Z,71.40
2017-09-27T04:21:41.387Z,71.50
2017-09-27T04:22:46.540Z,71.40
2017-09-27T04:23:51.917Z,71.40
2017-09-27T04:24:57.026Z,71.50
2017-09-27T04:26:02.300Z,71.40
2017-09-27T04:27:07.423Z,71.50
2017-09-27T04:28:12.570Z,71.40
2017-09-27T04:29:17.802Z,71.50
2017-09-27T04:30:23.072Z,71.40
2017-09-27T04:31:28.358Z,71.50
2017-09-27T04:32:33.748Z,72.10
2017-09-27T04:33:38.724Z,71.50
2017-09-27T04:34:43.837Z,71.50
2017-09-27T04:35:48.791Z,71.40
2017-09-27T04:36:55.475Z,71.50
2017-09-27T04:38:00.534Z,71.40
2017-09-27T04:39:05.700Z,71.40
2017-09-27T04:40:10.935Z,71.30
2017-09-27T04:41:15.925Z,71.40
2017-09-27T04:42:21.417Z,71.40
2017-09-27T04:43:26.671Z,71.40
2017-09-27T04:44:31.776Z,71.40
2017-09-27T04:45:36.862Z,71.50
2017-09-27T04:46:42.588Z,71.50
2017-09-27T04:47:47.962Z,71.50
2017-09-27T04:48:54.929Z,71.50
2017-09-27T04:50:00.339Z,71.50
2017-09-27T04:51:05.464Z,71.50
2017-09-27T04:52:10.848Z,71.60
2017-09-27T04:53:17.295Z,71.60
2017-09-27T04:54:22.287Z,71.60
2017-09-27T04:55:27.373Z,71.60
2017-09-27T04:56:32.496Z,71.60
2017-09-27T04:57:37.505Z,71.70
2017-09-27T04:58:42.519Z,71.70
2017-09-27T04:59:47.727Z,71.60
2017-09-27T05:00:52.751Z,71.70
2017-09-27T05:01:57.844Z,71.70
2017-09-27T05:03:02.824Z,71.90
2017-09-27T05:04:08.126Z,72.00
2017-09-27T05:05:13.114Z,71.70
2017-09-27T05:06:18.212Z,71.60
2017-09-27T05:07:23.613Z,71.60
2017-09-27T05:08:28.772Z,71.60
2017-09-27T05:09:33.877Z,71.50
2017-09-27T05:10:39.583Z,71.40
2017-09-27T05:11:44.577Z,71.30
2017-09-27T05:12:49.543Z,71.30
2017-09-27T05:13:54.712Z,71.20
2017-09-27T05:14:59.900Z,71.20
2017-09-27T05:16:05.149Z,71.10
2017-09-27T05:17:10.998Z,71.00
2017-09-27T05:18:16.407Z,71.10
2017-09-27T05:19:21.604Z,71.00
2017-09-27T05:20:26.978Z,70.90
2017-09-27T05:21:31.866Z,70.80
2017-09-27T05:22:38.233Z,70.80
2017-09-27T05:23:43.393Z,70.80
2017-09-27T05:24:48.657Z,70.80
2017-09-27T05:25:53.751Z,71.00
2017-09-27T05:26:59.373Z,71.00
2017-09-27T05:28:04.709Z,71.10
2017-09-27T05:29:10.122Z,71.00
2017-09-27T05:30:15.424Z,70.90
2017-09-27T05:31:20.385Z,70.80
2017-09-27T05:32:25.498Z,70.70
2017-09-27T05:33:30.691Z,70.60
2017-09-27T05:34:35.942Z,70.50
2017-09-27T05:35:41.666Z,70.60
2017-09-27T05:36:47.045Z,70.40
2017-09-27T05:37:52.485Z,70.40
2017-09-27T05:38:57.699Z,70.20
2017-09-27T05:40:03.458Z,70.00
2017-09-27T05:41:09.148Z,69.80
2017-09-27T05:42:15.400Z,69.70
2017-09-27T05:43:20.762Z,69.50
2017-09-27T05:44:26.584Z,69.40
2017-09-27T05:45:31.938Z,69.30
2017-09-27T05:46:37.215Z,69.20
2017-09-27T05:47:42.787Z,69.20
2017-09-27T05:48:48.425Z,69.80
2017-09-27T05:49:53.951Z,69.10
2017-09-27T05:50:59.730Z,69.10
2017-09-27T05:52:05.177Z,69.00
2017-09-27T05:53:10.720Z,68.90
2017-09-27T05:54:16.099Z,68.60
2017-09-27T05:55:21.542Z,68.60
2017-09-27T05:56:26.621Z,68.50
2017-09-27T05:57:32.157Z,68.50
2017-09-27T05:58:37.855Z,68.50
2017-09-27T05:59:44.801Z,68.30
2017-09-27T06:00:50.662Z,68.40
2017-09-27T06:01:56.021Z,68.20
2017-09-27T06:03:01.560Z,68.30
2017-09-27T06:04:06.893Z,68.20
2017-09-27T06:05:12.103Z,68.10
2017-09-27T06:06:17.440Z,67.90
2017-09-27T06:07:22.904Z,67.80
2017-09-27T06:08:28.282Z,67.90
2017-09-27T06:09:33.641Z,67.70
2017-09-27T06:10:39.212Z,67.40
2017-09-27T06:11:44.898Z,67.40
2017-09-27T06:12:50.123Z,68.00
2017-09-27T06:13:55.376Z,68.80
2017-09-27T06:15:02.016Z,69.60
2017-09-27T06:16:07.298Z,70.40
2017-09-27T06:17:12.887Z,70.80
2017-09-27T06:18:18.560Z,70.90
2017-09-27T06:19:24.409Z,71.00
2017-09-27T06:20:30.141Z,70.70
2017-09-27T06:21:35.566Z,70.40
2017-09-27T06:22:40.834Z,70.30
2017-09-27T06:23:46.337Z,70.10
2017-09-27T06:24:51.581Z,69.90
2017-09-27T06:25:57.060Z,69.80
2017-09-27T06:27:03.849Z,69.80
2017-09-27T06:28:09.426Z,70.10
2017-09-27T06:29:15.226Z,70.20
2017-09-27T06:30:24.060Z,70.70
2017-09-27T06:31:30.998Z,70.50
2017-09-27T06:32:36.820Z,70.40
2017-09-27T06:33:42.001Z,70.20
2017-09-27T06:34:47.415Z,70.00
2017-09-27T06:35:52.932Z,69.80
2017-09-27T06:36:58.310Z,69.60
2017-09-27T06:38:04.076Z,69.40
2017-09-27T06:39:09.990Z,69.20
2017-09-27T06:40:15.538Z,69.00
2017-09-27T06:41:21.424Z,68.90
2017-09-27T06:42:26.892Z,69.00
2017-09-27T06:43:32.136Z,69.10
2017-09-27T06:44:37.460Z,69.20
2017-09-27T06:45:43.671Z,69.10
2017-09-27T06:46:48.739Z,69.10
2017-09-27T06:47:54.595Z,69.00
2017-09-27T06:49:00.310Z,69.00
2017-09-27T06:50:06.833Z,69.00
2017-09-27T06:51:12.205Z,69.00
2017-09-27T06:52:17.306Z,69.00
2017-09-27T06:53:22.790Z,68.80
2017-09-27T06:54:28.865Z,68.60
2017-09-27T06:55:35.176Z,68.50
2017-09-27T06:56:40.817Z,68.20
2017-09-27T06:57:46.580Z,68.20
2017-09-27T06:58:51.909Z,68.20
2017-09-27T06:59:57.288Z,68.10
2017-09-27T07:01:04.047Z,68.10
2017-09-27T07:02:09.305Z,67.90
2017-09-27T07:03:14.765Z,67.70
2017-09-27T07:04:19.848Z,67.60
2017-09-27T07:05:24.806Z,67.70
2017-09-27T07:06:30.660Z,67.70
2017-09-27T07:07:36.301Z,67.60
2017-09-27T07:08:42.142Z,67.60
2017-09-27T07:09:47.597Z,67.40
2017-09-27T07:10:53.007Z,67.00
2017-09-27T07:11:58.296Z,66.50
2017-09-27T07:13:04.078Z,65.90
2017-09-27T07:14:09.577Z,65.70
2017-09-27T07:15:14.740Z,65.50
2017-09-27T07:16:21.396Z,65.50
2017-09-27T07:17:26.804Z,65.20
2017-09-27T07:18:31.998Z,65.10
2017-09-27T07:19:36.955Z,64.70
2017-09-27T07:20:54.878Z,64.50
2017-09-27T07:22:00.089Z,64.60
2017-09-27T07:23:05.464Z,64.60
2017-09-27T07:24:10.715Z,64.30
2017-09-27T07:25:17.494Z,64.10
2017-09-27T07:26:22.913Z,63.80
2017-09-27T07:27:28.073Z,63.70
2017-09-27T07:28:34.136Z,63.40
2017-09-27T07:29:40.222Z,63.50
2017-09-27T07:30:45.391Z,63.10
2017-09-27T07:31:50.680Z,63.10
2017-09-27T07:32:55.754Z,63.10
2017-09-27T07:34:00.939Z,63.20
2017-09-27T07:35:07.575Z,62.90
2017-09-27T07:36:13.843Z,62.80
2017-09-27T07:37:19.045Z,62.60
2017-09-27T07:38:24.907Z,62.60
2017-09-27T07:39:30.376Z,62.70
2017-09-27T07:40:37.232Z,62.60
2017-09-27T07:41:42.745Z,62.50
2017-09-27T07:42:48.222Z,62.40
2017-09-27T07:43:53.437Z,62.20
2017-09-27T07:44:59.321Z,62.10
2017-09-27T07:46:04.844Z,62.00
2017-09-27T07:47:10.233Z,61.80
2017-09-27T07:48:15.395Z,61.70
2017-09-27T07:49:20.302Z,61.50
2017-09-27T07:50:25.746Z,61.40
2017-09-27T07:51:30.629Z,61.50
2017-09-27T07:52:35.664Z,61.30
2017-09-27T07:53:40.594Z,61.30
2017-09-27T07:54:45.996Z,61.30
2017-09-27T07:55:51.352Z,61.30
2017-09-27T07:56:56.512Z,61.10
2017-09-27T07:58:01.876Z,61.30
2017-09-27T07:59:07.349Z,61.70
2017-09-27T08:00:12.450Z,62.30
2017-09-27T08:01:17.815Z,62.20
2017-09-27T08:02:22.939Z,61.60
2017-09-27T08:03:28.133Z,61.60
2017-09-27T08:04:33.810Z,61.50
2017-09-27T08:05:39.194Z,61.50
2017-09-27T08:06:44.381Z,61.70
2017-09-27T08:07:49.399Z,61.90
2017-09-27T08:08:54.504Z,61.90
2017-09-27T08:09:59.731Z,61.90
2017-09-27T08:11:04.760Z,62.00
2017-09-27T08:12:09.861Z,62.00
2017-09-27T08:13:15.290Z,62.00
2017-09-27T08:14:22.272Z,62.10
2017-09-27T08:15:27.424Z,62.50
2017-09-27T08:16:32.797Z,62.90
2017-09-27T08:17:38.038Z,62.40
2017-09-27T08:18:43.283Z,62.30
2017-09-27T08:19:48.501Z,62.10
2017-09-27T08:20:53.671Z,61.70
2017-09-27T08:21:58.927Z,61.60
2017-09-27T08:23:04.207Z,61.40
2017-09-27T08:24:09.464Z,61.20
2017-09-27T08:25:14.556Z,61.50
2017-09-27T08:26:19.644Z,61.30
2017-09-27T08:27:24.826Z,60.90
2017-09-27T08:28:29.894Z,60.60
2017-09-27T08:29:35.265Z,60.50
2017-09-27T08:30:40.147Z,60.30
2017-09-27T08:31:45.334Z,60.10
2017-09-27T08:32:50.361Z,60.00
2017-09-27T08:33:55.794Z,60.00
2017-09-27T08:35:01.058Z,60.10
2017-09-27T08:36:06.287Z,60.10
2017-09-27T08:37:11.668Z,60.00
2017-09-27T08:38:17.061Z,60.00
2017-09-27T08:39:21.941Z,60.00
2017-09-27T08:40:27.308Z,59.90
2017-09-27T08:41:32.680Z,59.90
2017-09-27T08:42:37.931Z,59.90
2017-09-27T08:43:43.355Z,59.90
2017-09-27T08:44:48.532Z,59.80
2017-09-27T08:45:53.603Z,59.70
2017-09-27T08:46:58.644Z,59.80
2017-09-27T08:48:05.232Z,59.70
2017-09-27T08:49:10.459Z,59.60
2017-09-27T08:50:15.698Z,59.60
2017-09-27T08:51:20.871Z,59.70
2017-09-27T08:52:26.304Z,59.60
2017-09-27T08:53:31.645Z,59.60
2017-09-27T08:54:36.831Z,59.60
2017-09-27T08:55:42.106Z,59.60
2017-09-27T08:56:47.393Z,59.60
2017-09-27T08:57:52.625Z,59.60
2017-09-27T08:58:57.802Z,59.50
2017-09-27T09:00:03.354Z,59.40
2017-09-27T09:01:08.534Z,59.40
2017-09-27T09:02:13.573Z,59.50
2017-09-27T09:03:20.196Z,59.40
2017-09-27T09:04:25.492Z,59.30
2017-09-27T09:05:30.860Z,59.50
2017-09-27T09:06:36.031Z,59.30
2017-09-27T09:07:41.221Z,59.50
2017-09-27T09:08:46.881Z,59.40
2017-09-27T09:09:52.173Z,59.30
2017-09-27T09:10:57.677Z,59.30
2017-09-27T09:12:03.324Z,59.30
2017-09-27T09:13:08.760Z,59.20
2017-09-27T09:14:14.068Z,59.30
2017-09-27T09:15:19.494Z,59.40
2017-09-27T09:16:24.645Z,59.20
2017-09-27T09:17:30.066Z,59.20
2017-09-27T09:18:35.247Z,59.20
2017-09-27T09:19:41.091Z,59.20
2017-09-27T09:20:46.425Z,59.20
2017-09-27T09:21:52.138Z,59.20
2017-09-27T09:22:57.314Z,59.20
2017-09-27T09:24:02.623Z,59.20
2017-09-27T09:25:08.258Z,59.20
2017-09-27T09:26:13.859Z,59.20
2017-09-27T09:27:18.989Z,59.20
2017-09-27T09:28:24.488Z,59.20
2017-09-27T09:29:29.821Z,59.10
2017-09-27T09:30:34.992Z,59.10
2017-09-27T09:31:40.129Z,59.00
2017-09-27T09:32:45.530Z,59.10
2017-09-27T09:33:50.998Z,59.20
2017-09-27T09:34:56.118Z,59.20
2017-09-27T09:36:01.574Z,59.30
2017-09-27T09:37:08.330Z,59.30
2017-09-27T09:38:13.673Z,59.40
2017-09-27T09:39:18.846Z,59.50
2017-09-27T09:40:24.506Z,59.50
2017-09-27T09:41:29.737Z,59.40
2017-09-27T09:42:34.839Z,59.30
2017-09-27T09:43:39.652Z,59.40
2017-09-27T09:44:44.881Z,59.50
2017-09-27T09:45:50.042Z,59.40
2017-09-27T09:46:55.233Z,59.40
2017-09-27T09:48:00.616Z,59.40
2017-09-27T09:49:05.566Z,59.40
2017-09-27T09:50:10.458Z,59.40
2017-09-27T09:51:19.417Z,59.50
2017-09-27T09:52:24.639Z,59.40
2017-09-27T09:53:30.028Z,59.40
2017-09-27T09:54:35.625Z,59.40
2017-09-27T09:55:41.010Z,59.50
2017-09-27T09:56:46.500Z,59.50
2017-09-27T09:57:52.284Z,59.50
2017-09-27T09:58:57.306Z,59.40
2017-09-27T10:00:02.788Z,59.80
2017-09-27T10:01:08.096Z,60.20
2017-09-27T10:02:13.444Z,60.60
2017-09-27T10:03:18.442Z,61.20
2017-09-27T10:04:25.270Z,61.50
2017-09-27T10:05:31.768Z,62.00
2017-09-27T10:06:37.616Z,62.40
2017-09-27T10:07:44.193Z,62.20
2017-09-27T10:08:49.431Z,62.20
2017-09-27T10:09:54.769Z,62.40
2017-09-27T10:10:59.887Z,62.60
2017-09-27T10:12:04.814Z,62.90
2017-09-27T10:13:09.700Z,63.10
2017-09-27T10:14:14.565Z,63.30
2017-09-27T10:15:19.643Z,63.60
2017-09-27T10:16:24.563Z,63.60
2017-09-27T10:17:29.584Z,63.70
2017-09-27T10:18:34.685Z,63.70
2017-09-27T10:19:39.770Z,64.00
2017-09-27T10:20:44.774Z,64.00
2017-09-27T10:21:49.752Z,64.20
2017-09-27T10:22:54.705Z,64.30
2017-09-27T10:23:59.742Z,64.50
2017-09-27T10:25:04.756Z,64.60
2017-09-27T10:26:10.051Z,64.70
2017-09-27T10:27:15.065Z,64.80
2017-09-27T10:28:19.867Z,65.40
2017-09-27T10:29:24.852Z,64.90
2017-09-27T10:30:29.786Z,64.90
2017-09-27T10:31:34.731Z,64.90
2017-09-27T10:32:39.731Z,64.80
2017-09-27T10:33:44.483Z,64.60
2017-09-27T10:34:49.315Z,64.80
2017-09-27T10:35:54.172Z,64.60
2017-09-27T10:36:59.068Z,64.60
2017-09-27T10:38:04.053Z,64.60
2017-09-27T10:39:09.168Z,64.60
2017-09-27T10:40:14.321Z,64.70
2017-09-27T10:41:19.227Z,64.70
2017-09-27T10:42:24.197Z,64.80
2017-09-27T10:43:29.102Z,64.80
2017-09-27T10:44:34.312Z,64.70
2017-09-27T10:45:39.210Z,64.90
2017-09-27T10:46:44.179Z,64.70
2017-09-27T10:47:49.105Z,64.70
2017-09-27T10:48:54.052Z,64.60
2017-09-27T10:49:59.142Z,64.60
2017-09-27T10:51:04.257Z,64.60
2017-09-27T10:52:09.322Z,64.60
2017-09-27T10:53:14.154Z,64.80
2017-09-27T10:54:19.265Z,64.80
2017-09-27T10:55:24.063Z,64.80
2017-09-27T10:56:29.036Z,64.80
2017-09-27T10:57:34.161Z,64.70
2017-09-27T10:58:39.213Z,64.70
2017-09-27T10:59:44.038Z,64.80
2017-09-27T11:00:48.966Z,64.80
2017-09-27T11:01:54.044Z,64.70
2017-09-27T11:02:59.431Z,64.80
2017-09-27T11:04:04.479Z,64.80
2017-09-27T11:05:09.455Z,64.90
2017-09-27T11:06:14.646Z,64.90
2017-09-27T11:07:19.766Z,64.80
2017-09-27T11:08:24.621Z,65.60
2017-09-27T11:09:29.428Z,64.90
2017-09-27T11:10:34.512Z,64.90
2017-09-27T11:11:39.477Z,65.10
2017-09-27T11:12:44.499Z,65.10
2017-09-27T11:13:49.428Z,65.10
2017-09-27T11:14:54.493Z,65.80
2017-09-27T11:15:59.528Z,65.10
2017-09-27T11:17:04.491Z,65.20
2017-09-27T11:18:09.704Z,65.10
2017-09-27T11:19:14.685Z,65.10
2017-09-27T11:20:19.968Z,65.10
2017-09-27T11:21:25.499Z,65.10
2017-09-27T11:22:30.333Z,65.10
2017-09-27T11:23:35.330Z,65.10
2017-09-27T11:24:40.224Z,65.10
2017-09-27T11:25:45.331Z,65.20
2017-09-27T11:26:50.299Z,65.20
2017-09-27T11:27:55.348Z,65.20
2017-09-27T11:29:00.470Z,65.20
2017-09-27T11:30:05.603Z,65.20
2017-09-27T11:31:10.429Z,65.20
2017-09-27T11:32:15.263Z,65.20
2017-09-27T11:33:20.299Z,65.20
2017-09-27T11:34:25.283Z,65.30
2017-09-27T11:35:30.269Z,65.30
2017-09-27T11:36:35.401Z,65.30
2017-09-27T11:37:40.398Z,65.30
2017-09-27T11:38:45.492Z,65.30
2017-09-27T11:39:50.637Z,65.30
2017-09-27T11:40:55.631Z,65.40
2017-09-27T11:42:00.345Z,65.40
2017-09-27T11:43:05.316Z,65.50
2017-09-27T11:44:10.459Z,65.60
2017-09-27T11:45:15.433Z,65.60
2017-09-27T11:46:20.599Z,65.60
2017-09-27T11:47:25.730Z,65.60
2017-09-27T11:48:30.795Z,65.60
2017-09-27T11:49:35.522Z,65.60
2017-09-27T11:50:40.579Z,65.60
2017-09-27T11:51:45.508Z,65.60
2017-09-27T11:52:50.365Z,65.70
2017-09-27T11:53:55.288Z,65.70
2017-09-27T11:55:00.094Z,65.70
2017-09-27T11:56:05.073Z,65.70
2017-09-27T11:57:10.065Z,65.60
2017-09-27T11:58:15.047Z,65.60
2017-09-27T11:59:19.955Z,65.60
2017-09-27T12:00:24.799Z,65.60
2017-09-27T12:01:29.804Z,65.70
2017-09-27T12:02:34.712Z,65.60
2017-09-27T12:03:39.749Z,65.60
2017-09-27T12:04:44.754Z,65.60
2017-09-27T12:05:49.726Z,65.70
2017-09-27T12:06:54.798Z,65.70
2017-09-27T12:07:59.766Z,65.70
2017-09-27T12:09:04.711Z,65.70
2017-09-27T12:10:09.684Z,65.80
2017-09-27T12:11:14.707Z,65.80
2017-09-27T12:12:19.778Z,65.80
2017-09-27T12:13:24.609Z,65.90
2017-09-27T12:14:29.688Z,65.90
2017-09-27T12:15:34.994Z,65.90
2017-09-27T12:16:39.867Z,65.80
2017-09-27T12:17:44.794Z,65.90
2017-09-27T12:18:49.958Z,65.80
2017-09-27T12:19:54.817Z,65.80
2017-09-27T12:20:59.886Z,65.80
2017-09-27T12:22:05.007Z,65.80
2017-09-27T12:23:09.949Z,65.70
2017-09-27T12:24:15.071Z,65.60
2017-09-27T12:25:20.176Z,65.60
2017-09-27T12:26:25.009Z,65.80
2017-09-27T12:27:30.171Z,65.70
2017-09-27T12:28:35.187Z,65.70
2017-09-27T12:29:40.029Z,65.70
2017-09-27T12:30:44.931Z,65.70
2017-09-27T12:31:50.054Z,65.70
2017-09-27T12:32:55.073Z,65.70
2017-09-27T12:34:00.015Z,65.80
2017-09-27T12:35:04.898Z,65.80
2017-09-27T12:36:09.792Z,65.80
2017-09-27T12:37:14.971Z,65.80
2017-09-27T12:38:19.924Z,65.80
2017-09-27T12:39:24.759Z,65.80
2017-09-27T12:40:29.977Z,65.80
2017-09-27T12:41:35.050Z,65.70
2017-09-27T12:42:39.840Z,65.80
2017-09-27T12:43:44.794Z,65.70
2017-09-27T12:44:49.866Z,65.70
2017-09-27T12:45:55.256Z,65.70
2017-09-27T12:47:00.263Z,65.80
2017-09-27T12:48:05.059Z,65.80
2017-09-27T12:49:10.168Z,65.70
2017-09-27T12:50:15.416Z,65.70
2017-09-27T12:51:20.376Z,65.90
2017-09-27T12:52:25.211Z,65.70
2017-09-27T12:53:30.340Z,65.70
2017-09-27T12:54:35.365Z,65.80
2017-09-27T12:55:40.427Z,65.70
2017-09-27T12:56:45.291Z,65.70
2017-09-27T12:57:50.329Z,65.80
2017-09-27T12:58:55.200Z,66.50
2017-09-27T13:00:00.191Z,65.80
2017-09-27T13:01:05.019Z,65.80
2017-09-27T13:02:09.959Z,65.80
2017-09-27T13:03:14.969Z,65.80
2017-09-27T13:04:19.962Z,65.80
2017-09-27T13:05:25.192Z,65.80
2017-09-27T13:06:30.330Z,65.80
2017-09-27T13:07:35.402Z,65.80
2017-09-27T13:08:40.497Z,65.80
2017-09-27T13:09:45.614Z,65.80
2017-09-27T13:10:50.610Z,66.00
2017-09-27T13:11:55.596Z,65.80
2017-09-27T13:13:00.669Z,65.90
2017-09-27T13:14:05.719Z,65.90
2017-09-27T13:15:10.822Z,65.90
2017-09-27T13:16:15.844Z,66.00
2017-09-27T13:17:20.894Z,66.00
2017-09-27T13:18:25.824Z,66.00
2017-09-27T13:19:30.753Z,66.00
2017-09-27T13:20:35.912Z,66.20
2017-09-27T13:21:40.713Z,66.10
2017-09-27T13:22:45.749Z,66.10
2017-09-27T13:23:50.875Z,66.10
2017-09-27T13:24:55.794Z,66.10
2017-09-27T13:26:00.769Z,66.20
2017-09-27T13:27:05.899Z,66.20
2017-09-27T13:28:11.046Z,66.20
2017-09-27T13:29:16.100Z,66.20
2017-09-27T13:30:21.123Z,66.20
2017-09-27T13:31:26.274Z,66.20
2017-09-27T13:32:31.601Z,66.20
2017-09-27T13:33:36.473Z,66.20
2017-09-27T13:34:41.426Z,66.30
2017-09-27T13:35:46.589Z,66.30
2017-09-27T13:36:51.626Z,66.30
2017-09-27T13:37:56.417Z,67.00
2017-09-27T13:39:01.280Z,66.40
2017-09-27T13:40:06.553Z,66.40
2017-09-27T13:41:11.379Z,66.50
2017-09-27T13:42:16.354Z,66.50
2017-09-27T13:43:21.240Z,66.50
2017-09-27T13:44:26.472Z,66.50
2017-09-27T13:45:31.458Z,66.50
2017-09-27T13:46:36.560Z,66.50
2017-09-27T13:47:41.490Z,66.50
2017-09-27T13:48:46.639Z,66.50
2017-09-27T13:49:51.691Z,66.50
2017-09-27T13:50:56.810Z,66.60
2017-09-27T13:52:01.851Z,66.60
2017-09-27T13:53:06.923Z,66.60
2017-09-27T13:54:12.121Z,66.70
2017-09-27T13:55:17.177Z,66.70
2017-09-27T13:56:22.278Z,66.70
2017-09-27T13:57:27.550Z,66.80
2017-09-27T13:58:32.545Z,66.70